sensor_id;sensor_type;location;lat;lon;timestamp;P1;durP1;ratioP1;P2;durP2;ratioP2
10299;SDS011;5195;48.562;9.192;2023-04-25T00:01:30;3.40;;;3.20;;
10299;SDS011;5195;48.562;9.192;2023-04-25T00:04:05;3.95;;;3.75;;
10299;SDS011;5195;48.562;9.192;2023-04-25T00:06:41;4.33;;;4.00;;
10299;SDS011;5195;48.562;9.192;2023-04-25T00:09:16;3.43;;;3.23;;
10299;SDS011;5195;48.562;9.192;2023-04-25T00:11:53;3.60;;;3.30;;
10299;SDS011;5195;48.562;9.192;2023-04-25T00:14:29;3.10;;;2.80;;
10299;SDS011;5195;48.562;9.192;2023-04-25T00:17:04;7.27;;;3.07;;
10299;SDS011;5195;48.562;9.192;2023-04-25T00:19:40;3.60;;;3.40;;
10299;SDS011;5195;48.562;9.192;2023-04-25T00:22:16;3.67;;;3.47;;
10299;SDS011;5195;48.562;9.192;2023-04-25T00:24:51;3.60;;;3.40;;
10299;SDS011;5195;48.562;9.192;2023-04-25T00:27:26;4.22;;;3.83;;
10299;SDS011;5195;48.562;9.192;2023-04-25T00:30:02;3.83;;;3.53;;
10299;SDS011;5195;48.562;9.192;2023-04-25T00:32:38;3.70;;;3.50;;
10299;SDS011;5195;48.562;9.192;2023-04-25T00:35:13;4.20;;;3.90;;
10299;SDS011;5195;48.562;9.192;2023-04-25T00:37:49;4.10;;;3.80;;
10299;SDS011;5195;48.562;9.192;2023-04-25T00:40:24;3.57;;;3.37;;
10299;SDS011;5195;48.562;9.192;2023-04-25T00:43:00;3.53;;;3.30;;
10299;SDS011;5195;48.562;9.192;2023-04-25T00:45:36;3.47;;;3.17;;
10299;SDS011;5195;48.562;9.192;2023-04-25T00:48:13;3.83;;;3.60;;
10299;SDS011;5195;48.562;9.192;2023-04-25T00:50:51;3.53;;;3.33;;
10299;SDS011;5195;48.562;9.192;2023-04-25T00:53:27;3.10;;;2.90;;
10299;SDS011;5195;48.562;9.192;2023-04-25T00:56:02;3.67;;;3.45;;
10299;SDS011;5195;48.562;9.192;2023-04-25T00:58:38;3.03;;;2.83;;
10299;SDS011;5195;48.562;9.192;2023-04-25T01:01:13;4.30;;;2.93;;
10299;SDS011;5195;48.562;9.192;2023-04-25T01:03:49;3.90;;;3.60;;
10299;SDS011;5195;48.562;9.192;2023-04-25T01:06:24;3.03;;;2.83;;
10299;SDS011;5195;48.562;9.192;2023-04-25T01:09:01;4.15;;;3.72;;
10299;SDS011;5195;48.562;9.192;2023-04-25T01:11:36;3.50;;;3.20;;
10299;SDS011;5195;48.562;9.192;2023-04-25T01:14:12;2.50;;;2.40;;
10299;SDS011;5195;48.562;9.192;2023-04-25T01:16:47;3.07;;;2.87;;
10299;SDS011;5195;48.562;9.192;2023-04-25T01:19:23;4.23;;;2.93;;
10299;SDS011;5195;48.562;9.192;2023-04-25T01:21:58;4.30;;;2.80;;
10299;SDS011;5195;48.562;9.192;2023-04-25T01:24:34;3.30;;;3.00;;
10299;SDS011;5195;48.562;9.192;2023-04-25T01:27:10;3.33;;;3.00;;
10299;SDS011;5195;48.562;9.192;2023-04-25T01:29:45;3.25;;;3.05;;
10299;SDS011;5195;48.562;9.192;2023-04-25T01:32:23;3.25;;;2.95;;
10299;SDS011;5195;48.562;9.192;2023-04-25T01:34:58;2.97;;;2.77;;
10299;SDS011;5195;48.562;9.192;2023-04-25T01:37:33;3.20;;;3.00;;
10299;SDS011;5195;48.562;9.192;2023-04-25T01:42:45;3.13;;;2.93;;
10299;SDS011;5195;48.562;9.192;2023-04-25T01:45:20;3.17;;;2.97;;
10299;SDS011;5195;48.562;9.192;2023-04-25T01:47:56;4.40;;;2.70;;
10299;SDS011;5195;48.562;9.192;2023-04-25T01:50:31;3.77;;;3.40;;
10299;SDS011;5195;48.562;9.192;2023-04-25T01:53:09;3.83;;;3.53;;
10299;SDS011;5195;48.562;9.192;2023-04-25T01:55:43;2.83;;;2.70;;
10299;SDS011;5195;48.562;9.192;2023-04-25T01:58:19;3.62;;;3.33;;
10299;SDS011;5195;48.562;9.192;2023-04-25T02:00:55;3.43;;;3.13;;
10299;SDS011;5195;48.562;9.192;2023-04-25T02:03:31;3.20;;;2.93;;
10299;SDS011;5195;48.562;9.192;2023-04-25T02:06:06;3.50;;;3.23;;
10299;SDS011;5195;48.562;9.192;2023-04-25T02:08:42;3.70;;;3.00;;
10299;SDS011;5195;48.562;9.192;2023-04-25T02:11:18;4.27;;;3.20;;
10299;SDS011;5195;48.562;9.192;2023-04-25T02:13:54;3.60;;;3.30;;
10299;SDS011;5195;48.562;9.192;2023-04-25T02:16:29;3.07;;;2.87;;
10299;SDS011;5195;48.562;9.192;2023-04-25T02:19:05;3.37;;;3.03;;
10299;SDS011;5195;48.562;9.192;2023-04-25T02:21:41;3.20;;;3.07;;
10299;SDS011;5195;48.562;9.192;2023-04-25T02:24:16;2.90;;;2.70;;
10299;SDS011;5195;48.562;9.192;2023-04-25T02:26:52;3.25;;;3.03;;
10299;SDS011;5195;48.562;9.192;2023-04-25T02:29:29;3.00;;;2.80;;
10299;SDS011;5195;48.562;9.192;2023-04-25T02:32:06;2.93;;;2.67;;
10299;SDS011;5195;48.562;9.192;2023-04-25T02:34:41;3.47;;;3.20;;
10299;SDS011;5195;48.562;9.192;2023-04-25T02:37:17;4.07;;;2.63;;
10299;SDS011;5195;48.562;9.192;2023-04-25T02:39:52;3.60;;;2.37;;
10299;SDS011;5195;48.562;9.192;2023-04-25T02:42:29;3.87;;;3.55;;
10299;SDS011;5195;48.562;9.192;2023-04-25T02:45:04;3.60;;;3.30;;
10299;SDS011;5195;48.562;9.192;2023-04-25T02:47:40;3.10;;;2.90;;
10299;SDS011;5195;48.562;9.192;2023-04-25T02:50:16;5.40;;;3.30;;
10299;SDS011;5195;48.562;9.192;2023-04-25T02:52:52;3.80;;;3.50;;
10299;SDS011;5195;48.562;9.192;2023-04-25T02:55:27;3.60;;;3.30;;
10299;SDS011;5195;48.562;9.192;2023-04-25T02:58:03;3.93;;;3.63;;
10299;SDS011;5195;48.562;9.192;2023-04-25T03:00:39;4.45;;;3.80;;
10299;SDS011;5195;48.562;9.192;2023-04-25T03:03:15;4.37;;;4.00;;
10299;SDS011;5195;48.562;9.192;2023-04-25T03:05:51;3.90;;;3.60;;
10299;SDS011;5195;48.562;9.192;2023-04-25T03:08:26;4.23;;;3.83;;
10299;SDS011;5195;48.562;9.192;2023-04-25T03:11:02;4.28;;;3.50;;
10299;SDS011;5195;48.562;9.192;2023-04-25T03:13:39;3.50;;;3.20;;
10299;SDS011;5195;48.562;9.192;2023-04-25T03:16:14;4.43;;;3.40;;
10299;SDS011;5195;48.562;9.192;2023-04-25T03:18:50;3.08;;;2.87;;
10299;SDS011;5195;48.562;9.192;2023-04-25T03:21:25;3.23;;;3.03;;
10299;SDS011;5195;48.562;9.192;2023-04-25T03:24:02;3.65;;;3.35;;
10299;SDS011;5195;48.562;9.192;2023-04-25T03:26:37;3.33;;;3.13;;
10299;SDS011;5195;48.562;9.192;2023-04-25T03:29:13;5.35;;;3.45;;
10299;SDS011;5195;48.562;9.192;2023-04-25T03:31:48;4.00;;;3.70;;
10299;SDS011;5195;48.562;9.192;2023-04-25T03:34:25;3.90;;;3.60;;
10299;SDS011;5195;48.562;9.192;2023-04-25T03:37:01;4.73;;;3.20;;
10299;SDS011;5195;48.562;9.192;2023-04-25T03:39:36;6.23;;;3.20;;
10299;SDS011;5195;48.562;9.192;2023-04-25T03:42:12;3.95;;;3.65;;
10299;SDS011;5195;48.562;9.192;2023-04-25T03:44:48;3.70;;;3.30;;
10299;SDS011;5195;48.562;9.192;2023-04-25T03:47:23;3.50;;;3.10;;
10299;SDS011;5195;48.562;9.192;2023-04-25T03:49:59;4.32;;;3.78;;
10299;SDS011;5195;48.562;9.192;2023-04-25T03:52:34;3.53;;;3.23;;
10299;SDS011;5195;48.562;9.192;2023-04-25T03:55:10;4.37;;;3.30;;
10299;SDS011;5195;48.562;9.192;2023-04-25T03:57:45;3.50;;;3.30;;
10299;SDS011;5195;48.562;9.192;2023-04-25T04:00:21;2.93;;;2.70;;
10299;SDS011;5195;48.562;9.192;2023-04-25T04:02:58;3.73;;;2.60;;
10299;SDS011;5195;48.562;9.192;2023-04-25T04:05:33;2.60;;;2.40;;
10299;SDS011;5195;48.562;9.192;2023-04-25T04:08:10;3.75;;;2.80;;
10299;SDS011;5195;48.562;9.192;2023-04-25T04:10:45;3.67;;;2.67;;
10299;SDS011;5195;48.562;9.192;2023-04-25T04:13:21;2.17;;;2.03;;
10299;SDS011;5195;48.562;9.192;2023-04-25T04:15:56;2.80;;;2.60;;
10299;SDS011;5195;48.562;9.192;2023-04-25T04:18:32;3.20;;;2.63;;
10299;SDS011;5195;48.562;9.192;2023-04-25T04:21:08;2.30;;;2.20;;
10299;SDS011;5195;48.562;9.192;2023-04-25T04:23:43;3.20;;;2.60;;
10299;SDS011;5195;48.562;9.192;2023-04-25T04:26:19;3.08;;;2.87;;
10299;SDS011;5195;48.562;9.192;2023-04-25T04:28:54;2.40;;;2.20;;
10299;SDS011;5195;48.562;9.192;2023-04-25T04:31:30;2.63;;;2.40;;
10299;SDS011;5195;48.562;9.192;2023-04-25T04:34:06;2.17;;;2.07;;
10299;SDS011;5195;48.562;9.192;2023-04-25T04:36:41;3.00;;;2.70;;
10299;SDS011;5195;48.562;9.192;2023-04-25T04:39:17;2.97;;;2.50;;
10299;SDS011;5195;48.562;9.192;2023-04-25T04:41:52;3.10;;;2.47;;
10299;SDS011;5195;48.562;9.192;2023-04-25T04:44:28;3.77;;;2.20;;
10299;SDS011;5195;48.562;9.192;2023-04-25T04:47:04;3.00;;;2.70;;
10299;SDS011;5195;48.562;9.192;2023-04-25T04:49:39;2.97;;;2.67;;
10299;SDS011;5195;48.562;9.192;2023-04-25T04:52:15;3.20;;;2.90;;
10299;SDS011;5195;48.562;9.192;2023-04-25T04:54:51;3.73;;;2.40;;
10299;SDS011;5195;48.562;9.192;2023-04-25T04:57:27;2.90;;;2.70;;
10299;SDS011;5195;48.562;9.192;2023-04-25T05:00:03;2.78;;;2.58;;
10299;SDS011;5195;48.562;9.192;2023-04-25T05:02:40;2.53;;;2.33;;
10299;SDS011;5195;48.562;9.192;2023-04-25T05:05:16;2.43;;;2.23;;
10299;SDS011;5195;48.562;9.192;2023-04-25T05:07:51;3.00;;;2.80;;
10299;SDS011;5195;48.562;9.192;2023-04-25T05:10:27;3.00;;;2.60;;
10299;SDS011;5195;48.562;9.192;2023-04-25T05:13:03;3.28;;;2.90;;
10299;SDS011;5195;48.562;9.192;2023-04-25T05:15:39;2.80;;;2.60;;
10299;SDS011;5195;48.562;9.192;2023-04-25T05:18:16;3.93;;;2.80;;
10299;SDS011;5195;48.562;9.192;2023-04-25T05:20:52;2.20;;;2.10;;
10299;SDS011;5195;48.562;9.192;2023-04-25T05:23:28;7.83;;;3.00;;
10299;SDS011;5195;48.562;9.192;2023-04-25T05:26:03;3.10;;;2.20;;
10299;SDS011;5195;48.562;9.192;2023-04-25T05:28:39;2.77;;;2.57;;
10299;SDS011;5195;48.562;9.192;2023-04-25T05:31:18;3.37;;;3.15;;
10299;SDS011;5195;48.562;9.192;2023-04-25T05:33:54;3.33;;;3.03;;
10299;SDS011;5195;48.562;9.192;2023-04-25T05:36:29;3.60;;;3.10;;
10299;SDS011;5195;48.562;9.192;2023-04-25T05:39:05;3.83;;;3.35;;
10299;SDS011;5195;48.562;9.192;2023-04-25T05:41:40;3.17;;;2.60;;
10299;SDS011;5195;48.562;9.192;2023-04-25T05:44:16;3.50;;;3.30;;
10299;SDS011;5195;48.562;9.192;2023-04-25T05:46:52;2.87;;;2.67;;
10299;SDS011;5195;48.562;9.192;2023-04-25T05:49:29;3.57;;;3.27;;
10299;SDS011;5195;48.562;9.192;2023-04-25T05:52:05;3.20;;;2.90;;
10299;SDS011;5195;48.562;9.192;2023-04-25T05:54:40;3.07;;;2.87;;
10299;SDS011;5195;48.562;9.192;2023-04-25T05:57:26;3.78;;;3.50;;
10299;SDS011;5195;48.562;9.192;2023-04-25T05:59:55;3.27;;;3.07;;
10299;SDS011;5195;48.562;9.192;2023-04-25T06:02:30;4.50;;;3.13;;
10299;SDS011;5195;48.562;9.192;2023-04-25T06:05:06;2.90;;;2.70;;
10299;SDS011;5195;48.562;9.192;2023-04-25T06:07:42;3.30;;;3.10;;
10299;SDS011;5195;48.562;9.192;2023-04-25T06:10:17;3.55;;;3.25;;
10299;SDS011;5195;48.562;9.192;2023-04-25T06:12:53;3.97;;;3.10;;
10299;SDS011;5195;48.562;9.192;2023-04-25T06:15:31;3.40;;;3.10;;
10299;SDS011;5195;48.562;9.192;2023-04-25T06:18:06;5.63;;;5.13;;
10299;SDS011;5195;48.562;9.192;2023-04-25T06:20:42;4.57;;;4.27;;
10299;SDS011;5195;48.562;9.192;2023-04-25T06:23:17;4.73;;;3.37;;
10299;SDS011;5195;48.562;9.192;2023-04-25T06:25:53;3.60;;;3.40;;
10299;SDS011;5195;48.562;9.192;2023-04-25T06:28:28;3.60;;;3.30;;
10299;SDS011;5195;48.562;9.192;2023-04-25T06:31:04;3.60;;;3.30;;
10299;SDS011;5195;48.562;9.192;2023-04-25T06:33:40;3.50;;;3.20;;
10299;SDS011;5195;48.562;9.192;2023-04-25T06:36:15;3.50;;;3.20;;
10299;SDS011;5195;48.562;9.192;2023-04-25T06:38:51;3.20;;;3.00;;
10299;SDS011;5195;48.562;9.192;2023-04-25T06:41:26;3.50;;;3.20;;
10299;SDS011;5195;48.562;9.192;2023-04-25T06:44:02;4.22;;;3.83;;
10299;SDS011;5195;48.562;9.192;2023-04-25T06:46:37;2.90;;;2.80;;
10299;SDS011;5195;48.562;9.192;2023-04-25T06:49:13;11.30;;;10.18;;
10299;SDS011;5195;48.562;9.192;2023-04-25T06:51:50;4.47;;;4.17;;
10299;SDS011;5195;48.562;9.192;2023-04-25T06:54:26;3.90;;;2.93;;
10299;SDS011;5195;48.562;9.192;2023-04-25T06:57:01;8.13;;;6.87;;
10299;SDS011;5195;48.562;9.192;2023-04-25T06:59:37;5.23;;;4.10;;
10299;SDS011;5195;48.562;9.192;2023-04-25T07:02:13;3.00;;;2.80;;
10299;SDS011;5195;48.562;9.192;2023-04-25T07:04:49;6.47;;;5.97;;
10299;SDS011;5195;48.562;9.192;2023-04-25T07:07:26;5.90;;;5.35;;
10299;SDS011;5195;48.562;9.192;2023-04-25T07:10:01;5.33;;;4.87;;
10299;SDS011;5195;48.562;9.192;2023-04-25T07:12:36;3.60;;;3.33;;
10299;SDS011;5195;48.562;9.192;2023-04-25T07:15:12;19.83;;;18.08;;
10299;SDS011;5195;48.562;9.192;2023-04-25T07:17:47;14.70;;;13.50;;
10299;SDS011;5195;48.562;9.192;2023-04-25T07:20:23;11.23;;;10.30;;
10299;SDS011;5195;48.562;9.192;2023-04-25T07:22:59;11.45;;;10.45;;
10299;SDS011;5195;48.562;9.192;2023-04-25T07:25:34;6.57;;;5.93;;
10299;SDS011;5195;48.562;9.192;2023-04-25T07:28:10;4.83;;;4.53;;
10299;SDS011;5195;48.562;9.192;2023-04-25T07:30:45;5.60;;;4.13;;
10299;SDS011;5195;48.562;9.192;2023-04-25T07:33:22;5.50;;;4.28;;
10299;SDS011;5195;48.562;9.192;2023-04-25T07:35:57;4.03;;;3.73;;
10299;SDS011;5195;48.562;9.192;2023-04-25T07:38:33;4.15;;;3.83;;
10299;SDS011;5195;48.562;9.192;2023-04-25T07:41:08;4.80;;;4.50;;
10299;SDS011;5195;48.562;9.192;2023-04-25T07:43:45;3.70;;;3.43;;
10299;SDS011;5195;48.562;9.192;2023-04-25T07:46:21;4.90;;;4.45;;
10299;SDS011;5195;48.562;9.192;2023-04-25T07:48:56;5.25;;;4.85;;
10299;SDS011;5195;48.562;9.192;2023-04-25T07:51:32;4.00;;;3.70;;
10299;SDS011;5195;48.562;9.192;2023-04-25T07:54:09;3.92;;;3.62;;
10299;SDS011;5195;48.562;9.192;2023-04-25T07:56:44;3.90;;;3.60;;
10299;SDS011;5195;48.562;9.192;2023-04-25T07:59:19;4.20;;;3.33;;
10299;SDS011;5195;48.562;9.192;2023-04-25T08:01:55;5.25;;;3.75;;
10299;SDS011;5195;48.562;9.192;2023-04-25T08:04:31;3.80;;;3.50;;
10299;SDS011;5195;48.562;9.192;2023-04-25T08:07:07;4.75;;;4.30;;
10299;SDS011;5195;48.562;9.192;2023-04-25T08:09:42;5.30;;;5.00;;
10299;SDS011;5195;48.562;9.192;2023-04-25T08:12:18;4.40;;;4.10;;
10299;SDS011;5195;48.562;9.192;2023-04-25T08:14:53;3.57;;;3.37;;
10299;SDS011;5195;48.562;9.192;2023-04-25T08:17:30;3.87;;;3.58;;
10299;SDS011;5195;48.562;9.192;2023-04-25T08:20:05;3.17;;;2.97;;
10299;SDS011;5195;48.562;9.192;2023-04-25T08:22:42;2.63;;;2.53;;
10299;SDS011;5195;48.562;9.192;2023-04-25T08:25:17;2.85;;;2.75;;
10299;SDS011;5195;48.562;9.192;2023-04-25T08:27:52;3.40;;;3.20;;
10299;SDS011;5195;48.562;9.192;2023-04-25T08:30:28;2.83;;;2.73;;
10299;SDS011;5195;48.562;9.192;2023-04-25T08:33:04;3.10;;;3.00;;
10299;SDS011;5195;48.562;9.192;2023-04-25T08:35:40;3.43;;;3.23;;
10299;SDS011;5195;48.562;9.192;2023-04-25T08:38:16;16.55;;;15.07;;
10299;SDS011;5195;48.562;9.192;2023-04-25T08:40:51;7.23;;;6.80;;
10299;SDS011;5195;48.562;9.192;2023-04-25T08:43:26;4.50;;;4.20;;
10299;SDS011;5195;48.562;9.192;2023-04-25T08:46:02;4.53;;;4.33;;
10299;SDS011;5195;48.562;9.192;2023-04-25T08:48:39;5.20;;;4.80;;
10299;SDS011;5195;48.562;9.192;2023-04-25T08:51:15;4.20;;;4.00;;
10299;SDS011;5195;48.562;9.192;2023-04-25T08:54:09;4.43;;;4.23;;
10299;SDS011;5195;48.562;9.192;2023-04-25T08:56:44;4.27;;;3.87;;
10299;SDS011;5195;48.562;9.192;2023-04-25T08:59:19;5.03;;;4.70;;
10299;SDS011;5195;48.562;9.192;2023-04-25T09:01:55;4.63;;;4.33;;
10299;SDS011;5195;48.562;9.192;2023-04-25T09:04:32;4.43;;;4.13;;
10299;SDS011;5195;48.562;9.192;2023-04-25T09:07:07;4.83;;;3.67;;
10299;SDS011;5195;48.562;9.192;2023-04-25T09:09:43;3.70;;;3.40;;
10299;SDS011;5195;48.562;9.192;2023-04-25T09:12:19;3.67;;;3.47;;
10299;SDS011;5195;48.562;9.192;2023-04-25T09:15:02;4.07;;;3.67;;
10299;SDS011;5195;48.562;9.192;2023-04-25T09:17:43;4.30;;;4.00;;
10299;SDS011;5195;48.562;9.192;2023-04-25T09:20:18;3.60;;;3.30;;
10299;SDS011;5195;48.562;9.192;2023-04-25T09:23:02;4.15;;;3.85;;
10299;SDS011;5195;48.562;9.192;2023-04-25T09:25:40;3.63;;;3.33;;
10299;SDS011;5195;48.562;9.192;2023-04-25T09:28:16;3.50;;;3.20;;
10299;SDS011;5195;48.562;9.192;2023-04-25T09:30:55;4.30;;;4.10;;
10299;SDS011;5195;48.562;9.192;2023-04-25T09:33:31;3.80;;;3.50;;
10299;SDS011;5195;48.562;9.192;2023-04-25T09:36:06;4.60;;;4.30;;
10299;SDS011;5195;48.562;9.192;2023-04-25T09:38:44;9.07;;;8.43;;
10299;SDS011;5195;48.562;9.192;2023-04-25T09:41:22;7.65;;;7.05;;
10299;SDS011;5195;48.562;9.192;2023-04-25T09:43:58;6.33;;;5.93;;
10299;SDS011;5195;48.562;9.192;2023-04-25T09:46:34;6.40;;;6.00;;
10299;SDS011;5195;48.562;9.192;2023-04-25T09:49:09;4.07;;;3.87;;
10299;SDS011;5195;48.562;9.192;2023-04-25T09:51:56;5.80;;;5.30;;
10299;SDS011;5195;48.562;9.192;2023-04-25T09:54:34;4.33;;;4.10;;
10299;SDS011;5195;48.562;9.192;2023-04-25T09:57:18;5.13;;;4.70;;
10299;SDS011;5195;48.562;9.192;2023-04-25T09:59:53;4.13;;;3.83;;
10299;SDS011;5195;48.562;9.192;2023-04-25T10:02:28;3.80;;;3.50;;
10299;SDS011;5195;48.562;9.192;2023-04-25T10:05:05;3.87;;;3.57;;
10299;SDS011;5195;48.562;9.192;2023-04-25T10:07:40;3.63;;;3.33;;
10299;SDS011;5195;48.562;9.192;2023-04-25T10:10:15;4.67;;;4.27;;
10299;SDS011;5195;48.562;9.192;2023-04-25T10:12:51;5.07;;;4.57;;
10299;SDS011;5195;48.562;9.192;2023-04-25T10:15:26;5.00;;;4.60;;
10299;SDS011;5195;48.562;9.192;2023-04-25T10:18:02;3.62;;;3.42;;
10299;SDS011;5195;48.562;9.192;2023-04-25T10:20:38;3.50;;;3.30;;
10299;SDS011;5195;48.562;9.192;2023-04-25T10:23:13;2.17;;;2.07;;
10299;SDS011;5195;48.562;9.192;2023-04-25T10:25:50;2.25;;;2.05;;
10299;SDS011;5195;48.562;9.192;2023-04-25T10:28:24;9.47;;;8.10;;
10299;SDS011;5195;48.562;9.192;2023-04-25T10:31:03;4.55;;;4.22;;
10299;SDS011;5195;48.562;9.192;2023-04-25T10:33:40;4.10;;;3.80;;
10299;SDS011;5195;48.562;9.192;2023-04-25T10:36:15;3.63;;;3.33;;
10299;SDS011;5195;48.562;9.192;2023-04-25T10:38:51;3.85;;;3.58;;
10299;SDS011;5195;48.562;9.192;2023-04-25T10:41:26;2.33;;;2.23;;
10299;SDS011;5195;48.562;9.192;2023-04-25T10:44:02;2.50;;;2.40;;
10299;SDS011;5195;48.562;9.192;2023-04-25T10:46:39;2.70;;;2.60;;
10299;SDS011;5195;48.562;9.192;2023-04-25T10:52:15;1.57;;;1.47;;
10299;SDS011;5195;48.562;9.192;2023-04-25T10:54:56;1.43;;;1.33;;
10299;SDS011;5195;48.562;9.192;2023-04-25T10:57:39;1.25;;;1.20;;
10299;SDS011;5195;48.562;9.192;2023-04-25T11:00:24;1.60;;;1.50;;
10299;SDS011;5195;48.562;9.192;2023-04-25T11:03:00;1.30;;;1.30;;
10299;SDS011;5195;48.562;9.192;2023-04-25T11:05:36;1.92;;;1.83;;
10299;SDS011;5195;48.562;9.192;2023-04-25T11:08:11;0.90;;;0.90;;
10299;SDS011;5195;48.562;9.192;2023-04-25T11:10:47;1.20;;;1.10;;
10299;SDS011;5195;48.562;9.192;2023-04-25T11:13:28;2.63;;;1.00;;
10299;SDS011;5195;48.562;9.192;2023-04-25T11:15:58;1.20;;;1.10;;
10299;SDS011;5195;48.562;9.192;2023-04-25T11:18:34;1.00;;;1.00;;
10299;SDS011;5195;48.562;9.192;2023-04-25T11:21:10;1.55;;;1.30;;
10299;SDS011;5195;48.562;9.192;2023-04-25T11:23:45;1.00;;;1.00;;
10299;SDS011;5195;48.562;9.192;2023-04-25T11:26:21;1.03;;;1.00;;
10299;SDS011;5195;48.562;9.192;2023-04-25T11:28:57;0.80;;;0.70;;
10299;SDS011;5195;48.562;9.192;2023-04-25T11:31:32;0.70;;;0.70;;
10299;SDS011;5195;48.562;9.192;2023-04-25T11:34:07;0.60;;;0.60;;
10299;SDS011;5195;48.562;9.192;2023-04-25T11:36:43;0.43;;;0.43;;
10299;SDS011;5195;48.562;9.192;2023-04-25T11:39:19;1.20;;;0.68;;
10299;SDS011;5195;48.562;9.192;2023-04-25T11:41:55;0.50;;;0.50;;
10299;SDS011;5195;48.562;9.192;2023-04-25T11:44:32;0.43;;;0.40;;
10299;SDS011;5195;48.562;9.192;2023-04-25T11:47:08;0.50;;;0.50;;
10299;SDS011;5195;48.562;9.192;2023-04-25T11:49:44;0.40;;;0.40;;
10299;SDS011;5195;48.562;9.192;2023-04-25T11:52:19;0.52;;;0.40;;
10299;SDS011;5195;48.562;9.192;2023-04-25T11:54:56;0.40;;;0.40;;
10299;SDS011;5195;48.562;9.192;2023-04-25T11:57:30;0.40;;;0.40;;
10299;SDS011;5195;48.562;9.192;2023-04-25T12:02:55;1.03;;;0.40;;
10299;SDS011;5195;48.562;9.192;2023-04-25T12:05:23;0.95;;;0.50;;
10299;SDS011;5195;48.562;9.192;2023-04-25T12:08:09;0.43;;;0.43;;
10299;SDS011;5195;48.562;9.192;2023-04-25T12:21:37;0.80;;;0.80;;
10299;SDS011;5195;48.562;9.192;2023-04-25T12:24:14;0.90;;;0.90;;
10299;SDS011;5195;48.562;9.192;2023-04-25T12:26:59;0.83;;;0.70;;
10299;SDS011;5195;48.562;9.192;2023-04-25T12:29:24;0.70;;;0.70;;
10299;SDS011;5195;48.562;9.192;2023-04-25T12:31:49;0.70;;;0.70;;
10299;SDS011;5195;48.562;9.192;2023-04-25T12:34:15;1.10;;;0.70;;
10299;SDS011;5195;48.562;9.192;2023-04-25T12:36:40;0.70;;;0.70;;
10299;SDS011;5195;48.562;9.192;2023-04-25T12:39:06;0.87;;;0.87;;
10299;SDS011;5195;48.562;9.192;2023-04-25T12:41:31;1.10;;;0.77;;
10299;SDS011;5195;48.562;9.192;2023-04-25T12:43:57;0.90;;;0.80;;
10299;SDS011;5195;48.562;9.192;2023-04-25T12:46:22;0.67;;;0.67;;
10299;SDS011;5195;48.562;9.192;2023-04-25T12:48:48;0.70;;;0.70;;
10299;SDS011;5195;48.562;9.192;2023-04-25T12:51:14;0.90;;;0.70;;
10299;SDS011;5195;48.562;9.192;2023-04-25T12:53:39;0.75;;;0.75;;
10299;SDS011;5195;48.562;9.192;2023-04-25T12:56:06;0.80;;;0.80;;
10299;SDS011;5195;48.562;9.192;2023-04-25T12:58:31;2.63;;;1.00;;
10299;SDS011;5195;48.562;9.192;2023-04-25T13:00:58;0.80;;;0.80;;
10299;SDS011;5195;48.562;9.192;2023-04-25T13:03:24;0.73;;;0.73;;
10299;SDS011;5195;48.562;9.192;2023-04-25T13:05:49;0.80;;;0.80;;
10299;SDS011;5195;48.562;9.192;2023-04-25T13:08:15;0.70;;;0.70;;
10299;SDS011;5195;48.562;9.192;2023-04-25T13:10:40;1.00;;;0.90;;
10299;SDS011;5195;48.562;9.192;2023-04-25T13:13:06;0.77;;;0.77;;
10299;SDS011;5195;48.562;9.192;2023-04-25T13:15:32;0.83;;;0.83;;
10299;SDS011;5195;48.562;9.192;2023-04-25T13:17:57;0.80;;;0.80;;
10299;SDS011;5195;48.562;9.192;2023-04-25T13:20:23;0.90;;;0.90;;
10299;SDS011;5195;48.562;9.192;2023-04-25T13:22:48;0.60;;;0.60;;
10299;SDS011;5195;48.562;9.192;2023-04-25T13:25:15;0.80;;;0.80;;
10299;SDS011;5195;48.562;9.192;2023-04-25T13:27:40;0.90;;;0.90;;
10299;SDS011;5195;48.562;9.192;2023-04-25T13:30:06;1.23;;;0.73;;
10299;SDS011;5195;48.562;9.192;2023-04-25T13:32:35;0.90;;;0.90;;
10299;SDS011;5195;48.562;9.192;2023-04-25T13:35:00;0.90;;;0.90;;
10299;SDS011;5195;48.562;9.192;2023-04-25T13:37:25;1.20;;;1.10;;
10299;SDS011;5195;48.562;9.192;2023-04-25T13:39:51;1.00;;;1.00;;
10299;SDS011;5195;48.562;9.192;2023-04-25T13:42:16;1.10;;;1.00;;
10299;SDS011;5195;48.562;9.192;2023-04-25T13:44:42;2.55;;;0.90;;
10299;SDS011;5195;48.562;9.192;2023-04-25T13:47:08;1.23;;;1.12;;
10299;SDS011;5195;48.562;9.192;2023-04-25T13:49:35;1.10;;;1.10;;
10299;SDS011;5195;48.562;9.192;2023-04-25T13:52:01;1.10;;;1.10;;
10299;SDS011;5195;48.562;9.192;2023-04-25T13:54:26;1.17;;;1.17;;
10299;SDS011;5195;48.562;9.192;2023-04-25T13:56:53;1.55;;;1.48;;
10299;SDS011;5195;48.562;9.192;2023-04-25T13:59:18;1.70;;;1.60;;
10299;SDS011;5195;48.562;9.192;2023-04-25T14:01:44;1.80;;;1.70;;
10299;SDS011;5195;48.562;9.192;2023-04-25T14:04:10;1.70;;;1.70;;
10299;SDS011;5195;48.562;9.192;2023-04-25T14:06:35;1.90;;;1.80;;
10299;SDS011;5195;48.562;9.192;2023-04-25T14:09:01;1.87;;;1.77;;
10299;SDS011;5195;48.562;9.192;2023-04-25T14:11:26;1.90;;;1.80;;
10299;SDS011;5195;48.562;9.192;2023-04-25T14:13:52;2.08;;;1.98;;
10299;SDS011;5195;48.562;9.192;2023-04-25T14:16:17;1.90;;;1.80;;
10299;SDS011;5195;48.562;9.192;2023-04-25T14:18:44;1.57;;;1.50;;
10299;SDS011;5195;48.562;9.192;2023-04-25T14:21:09;1.43;;;1.43;;
10299;SDS011;5195;48.562;9.192;2023-04-25T14:23:35;1.83;;;1.73;;
10299;SDS011;5195;48.562;9.192;2023-04-25T14:26:00;2.10;;;2.00;;
10299;SDS011;5195;48.562;9.192;2023-04-25T14:28:26;1.60;;;1.50;;
10299;SDS011;5195;48.562;9.192;2023-04-25T14:30:51;2.00;;;1.90;;
10299;SDS011;5195;48.562;9.192;2023-04-25T14:33:18;2.00;;;1.90;;
10299;SDS011;5195;48.562;9.192;2023-04-25T14:35:43;1.90;;;1.80;;
10299;SDS011;5195;48.562;9.192;2023-04-25T14:38:10;1.90;;;1.80;;
10299;SDS011;5195;48.562;9.192;2023-04-25T14:40:35;1.90;;;1.80;;
10299;SDS011;5195;48.562;9.192;2023-04-25T14:43:01;1.77;;;1.67;;
10299;SDS011;5195;48.562;9.192;2023-04-25T14:45:26;1.60;;;1.55;;
10299;SDS011;5195;48.562;9.192;2023-04-25T14:47:52;2.20;;;2.10;;
10299;SDS011;5195;48.562;9.192;2023-04-25T14:50:18;1.98;;;1.92;;
10299;SDS011;5195;48.562;9.192;2023-04-25T14:52:44;2.43;;;2.33;;
10299;SDS011;5195;48.562;9.192;2023-04-25T14:55:09;5.50;;;5.12;;
10299;SDS011;5195;48.562;9.192;2023-04-25T14:57:37;3.70;;;3.50;;
10299;SDS011;5195;48.562;9.192;2023-04-25T15:00:03;5.40;;;5.10;;
10299;SDS011;5195;48.562;9.192;2023-04-25T15:02:29;5.13;;;4.80;;
10299;SDS011;5195;48.562;9.192;2023-04-25T15:04:54;3.15;;;3.03;;
10299;SDS011;5195;48.562;9.192;2023-04-25T15:07:20;4.70;;;4.40;;
10299;SDS011;5195;48.562;9.192;2023-04-25T15:09:46;5.50;;;4.87;;
10299;SDS011;5195;48.562;9.192;2023-04-25T15:12:11;4.68;;;4.30;;
10299;SDS011;5195;48.562;9.192;2023-04-25T15:14:37;4.10;;;3.90;;
10299;SDS011;5195;48.562;9.192;2023-04-25T15:17:02;4.00;;;3.80;;
10299;SDS011;5195;48.562;9.192;2023-04-25T15:19:29;3.77;;;3.47;;
10299;SDS011;5195;48.562;9.192;2023-04-25T15:21:55;3.53;;;3.33;;
10299;SDS011;5195;48.562;9.192;2023-04-25T15:24:21;3.33;;;3.20;;
10299;SDS011;5195;48.562;9.192;2023-04-25T15:26:47;3.40;;;3.20;;
10299;SDS011;5195;48.562;9.192;2023-04-25T15:29:12;4.22;;;3.90;;
10299;SDS011;5195;48.562;9.192;2023-04-25T15:31:38;4.93;;;4.53;;
10299;SDS011;5195;48.562;9.192;2023-04-25T15:34:03;4.30;;;3.93;;
10299;SDS011;5195;48.562;9.192;2023-04-25T15:36:29;4.80;;;4.50;;
10299;SDS011;5195;48.562;9.192;2023-04-25T15:38:55;4.97;;;4.60;;
10299;SDS011;5195;48.562;9.192;2023-04-25T15:41:21;4.90;;;4.60;;
10299;SDS011;5195;48.562;9.192;2023-04-25T15:43:47;7.60;;;7.10;;
10299;SDS011;5195;48.562;9.192;2023-04-25T15:46:12;5.32;;;5.03;;
10299;SDS011;5195;48.562;9.192;2023-04-25T15:48:38;10.57;;;9.88;;
10299;SDS011;5195;48.562;9.192;2023-04-25T15:51:03;7.33;;;6.83;;
10299;SDS011;5195;48.562;9.192;2023-04-25T15:53:29;6.57;;;6.10;;
10299;SDS011;5195;48.562;9.192;2023-04-25T15:55:54;7.47;;;7.05;;
10299;SDS011;5195;48.562;9.192;2023-04-25T15:58:20;7.22;;;6.72;;